sensor_id;sensor_type;location;lat;lon;timestamp;temperature;humidity
52285;DHT22;38238;53.304;6.606;2023-02-14T00:01:40;4.40;99.90
52285;DHT22;38238;53.304;6.606;2023-02-14T00:04:06;3.40;99.90
52285;DHT22;38238;53.304;6.606;2023-02-14T00:06:32;3.40;99.90
52285;DHT22;38238;53.304;6.606;2023-02-14T00:09:01;3.50;99.90
52285;DHT22;38238;53.304;6.606;2023-02-14T00:11:27;3.50;99.90
52285;DHT22;38238;53.304;6.606;2023-02-14T00:13:53;4.10;99.90
52285;DHT22;38238;53.304;6.606;2023-02-14T00:16:53;3.40;99.90
52285;DHT22;38238;53.304;6.606;2023-02-14T00:19:20;3.40;99.90
52285;DHT22;38238;53.304;6.606;2023-02-14T00:21:46;3.30;99.90
52285;DHT22;38238;53.304;6.606;2023-02-14T00:24:18;3.30;99.90
52285;DHT22;38238;53.304;6.606;2023-02-14T00:26:44;3.50;99.90
52285;DHT22;38238;53.304;6.606;2023-02-14T00:29:12;3.30;99.90
52285;DHT22;38238;53.304;6.606;2023-02-14T00:31:38;4.50;99.90
52285;DHT22;38238;53.304;6.606;2023-02-14T00:34:05;3.20;99.90
52285;DHT22;38238;53.304;6.606;2023-02-14T00:36:32;3.20;99.90
52285;DHT22;38238;53.304;6.606;2023-02-14T00:38:58;3.10;99.90
52285;DHT22;38238;53.304;6.606;2023-02-14T00:41:23;3.10;99.90
52285;DHT22;38238;53.304;6.606;2023-02-14T00:43:51;3.80;99.90
52285;DHT22;38238;53.304;6.606;2023-02-14T00:46:19;3.00;99.90
52285;DHT22;38238;53.304;6.606;2023-02-14T00:48:45;3.00;99.90
52285;DHT22;38238;53.304;6.606;2023-02-14T00:51:11;3.00;99.90
52285;DHT22;38238;53.304;6.606;2023-02-14T00:53:37;3.00;99.90
52285;DHT22;38238;53.304;6.606;2023-02-14T00:56:03;2.90;99.90
52285;DHT22;38238;53.304;6.606;2023-02-14T00:58:29;2.90;99.90
52285;DHT22;38238;53.304;6.606;2023-02-14T01:00:56;2.90;99.90
52285;DHT22;38238;53.304;6.606;2023-02-14T01:03:22;2.90;99.90
52285;DHT22;38238;53.304;6.606;2023-02-14T01:05:49;2.90;99.90
52285;DHT22;38238;53.304;6.606;2023-02-14T01:08:15;2.90;99.90
52285;DHT22;38238;53.304;6.606;2023-02-14T01:10:40;2.80;99.90
52285;DHT22;38238;53.304;6.606;2023-02-14T01:13:06;2.80;99.90
52285;DHT22;38238;53.304;6.606;2023-02-14T01:15:33;3.30;99.90
52285;DHT22;38238;53.304;6.606;2023-02-14T01:18:02;2.70;99.90
52285;DHT22;38238;53.304;6.606;2023-02-14T01:20:28;2.70;99.90
52285;DHT22;38238;53.304;6.606;2023-02-14T01:22:53;2.70;99.90
52285;DHT22;38238;53.304;6.606;2023-02-14T01:25:19;2.70;99.90
52285;DHT22;38238;53.304;6.606;2023-02-14T01:27:45;2.70;99.90
52285;DHT22;38238;53.304;6.606;2023-02-14T01:30:11;3.20;99.90
52285;DHT22;38238;53.304;6.606;2023-02-14T01:32:37;2.60;99.90
52285;DHT22;38238;53.304;6.606;2023-02-14T01:35:02;2.60;99.90
52285;DHT22;38238;53.304;6.606;2023-02-14T01:37:29;2.60;99.90
52285;DHT22;38238;53.304;6.606;2023-02-14T01:39:55;2.60;99.90
52285;DHT22;38238;53.304;6.606;2023-02-14T01:42:20;3.10;99.90
52285;DHT22;38238;53.304;6.606;2023-02-14T01:47:12;2.60;99.90
52285;DHT22;38238;53.304;6.606;2023-02-14T01:49:58;2.60;99.90
52285;DHT22;38238;53.304;6.606;2023-02-14T01:52:30;2.60;99.90
52285;DHT22;38238;53.304;6.606;2023-02-14T01:55:03;2.50;99.90
52285;DHT22;38238;53.304;6.606;2023-02-14T01:57:35;2.60;99.90
52285;DHT22;38238;53.304;6.606;2023-02-14T02:00:04;2.50;99.90
52285;DHT22;38238;53.304;6.606;2023-02-14T02:02:48;3.80;99.90
52285;DHT22;38238;53.304;6.606;2023-02-14T02:05:15;2.50;99.90
52285;DHT22;38238;53.304;6.606;2023-02-14T02:07:41;2.80;99.90
52285;DHT22;38238;53.304;6.606;2023-02-14T02:10:08;2.70;99.90
52285;DHT22;38238;53.304;6.606;2023-02-14T02:12:34;2.40;99.90
52285;DHT22;38238;53.304;6.606;2023-02-14T02:15:02;2.40;99.90
52285;DHT22;38238;53.304;6.606;2023-02-14T02:23:09;2.40;99.90
52285;DHT22;38238;53.304;6.606;2023-02-14T02:42:48;2.40;99.90
52285;DHT22;38238;53.304;6.606;2023-02-14T02:45:36;2.40;99.90
52285;DHT22;38238;53.304;6.606;2023-02-14T02:51:22;2.30;99.90
52285;DHT22;38238;53.304;6.606;2023-02-14T02:54:16;2.30;99.90
52285;DHT22;38238;53.304;6.606;2023-02-14T02:56:54;2.30;99.90
52285;DHT22;38238;53.304;6.606;2023-02-14T02:59:40;2.30;99.90
52285;DHT22;38238;53.304;6.606;2023-02-14T03:02:29;2.20;99.90
52285;DHT22;38238;53.304;6.606;2023-02-14T03:04:59;2.20;99.90
52285;DHT22;38238;53.304;6.606;2023-02-14T03:07:34;2.20;99.90
52285;DHT22;38238;53.304;6.606;2023-02-14T03:17:46;2.10;99.90
52285;DHT22;38238;53.304;6.606;2023-02-14T03:34:34;2.00;99.90
52285;DHT22;38238;53.304;6.606;2023-02-14T03:37:05;2.00;99.90
52285;DHT22;38238;53.304;6.606;2023-02-14T03:39:55;1.90;99.90
52285;DHT22;38238;53.304;6.606;2023-02-14T03:42:31;1.90;99.90
52285;DHT22;38238;53.304;6.606;2023-02-14T03:44:59;1.90;99.90
52285;DHT22;38238;53.304;6.606;2023-02-14T03:47:29;1.90;99.90
52285;DHT22;38238;53.304;6.606;2023-02-14T03:50:00;3.00;99.90
52285;DHT22;38238;53.304;6.606;2023-02-14T03:52:28;1.80;99.90
52285;DHT22;38238;53.304;6.606;2023-02-14T03:54:56;1.80;99.90
52285;DHT22;38238;53.304;6.606;2023-02-14T03:57:31;1.80;99.90
52285;DHT22;38238;53.304;6.606;2023-02-14T04:00:00;1.80;99.90
52285;DHT22;38238;53.304;6.606;2023-02-14T04:02:42;2.30;99.90
52285;DHT22;38238;53.304;6.606;2023-02-14T04:05:14;1.70;99.90
52285;DHT22;38238;53.304;6.606;2023-02-14T04:07:46;1.80;99.90
52285;DHT22;38238;53.304;6.606;2023-02-14T04:10:13;1.80;99.90
52285;DHT22;38238;53.304;6.606;2023-02-14T04:12:38;1.80;99.90
52285;DHT22;38238;53.304;6.606;2023-02-14T04:15:04;1.80;99.90
52285;DHT22;38238;53.304;6.606;2023-02-14T04:17:30;1.80;99.90
52285;DHT22;38238;53.304;6.606;2023-02-14T04:20:14;1.80;99.90
52285;DHT22;38238;53.304;6.606;2023-02-14T04:22:40;1.80;99.90
52285;DHT22;38238;53.304;6.606;2023-02-14T04:25:06;1.80;99.90
52285;DHT22;38238;53.304;6.606;2023-02-14T04:27:31;1.80;99.90
52285;DHT22;38238;53.304;6.606;2023-02-14T04:29:57;1.80;99.90
52285;DHT22;38238;53.304;6.606;2023-02-14T04:32:23;1.80;99.90
52285;DHT22;38238;53.304;6.606;2023-02-14T04:34:49;1.80;99.90
52285;DHT22;38238;53.304;6.606;2023-02-14T04:37:16;1.80;99.90
52285;DHT22;38238;53.304;6.606;2023-02-14T04:39:42;1.80;99.90
52285;DHT22;38238;53.304;6.606;2023-02-14T04:42:08;1.80;99.90
52285;DHT22;38238;53.304;6.606;2023-02-14T04:44:34;1.80;99.90
52285;DHT22;38238;53.304;6.606;2023-02-14T04:47:03;1.80;99.90
52285;DHT22;38238;53.304;6.606;2023-02-14T04:49:29;1.70;99.90
52285;DHT22;38238;53.304;6.606;2023-02-14T04:51:55;1.80;99.90
52285;DHT22;38238;53.304;6.606;2023-02-14T04:54:20;1.70;99.90
52285;DHT22;38238;53.304;6.606;2023-02-14T04:56:46;2.70;99.90
52285;DHT22;38238;53.304;6.606;2023-02-14T04:59:12;1.70;99.90
52285;DHT22;38238;53.304;6.606;2023-02-14T05:01:39;1.70;99.90
52285;DHT22;38238;53.304;6.606;2023-02-14T05:04:05;1.70;99.90
52285;DHT22;38238;53.304;6.606;2023-02-14T05:06:31;1.70;99.90
52285;DHT22;38238;53.304;6.606;2023-02-14T05:08:57;1.70;99.90
52285;DHT22;38238;53.304;6.606;2023-02-14T05:11:23;3.00;99.90
52285;DHT22;38238;53.304;6.606;2023-02-14T05:13:49;2.40;99.90
52285;DHT22;38238;53.304;6.606;2023-02-14T05:16:15;1.70;99.90
52285;DHT22;38238;53.304;6.606;2023-02-14T05:18:40;1.70;99.90
52285;DHT22;38238;53.304;6.606;2023-02-14T05:21:06;1.70;99.90
52285;DHT22;38238;53.304;6.606;2023-02-14T05:23:32;1.70;99.90
52285;DHT22;38238;53.304;6.606;2023-02-14T05:25:58;1.70;99.90
52285;DHT22;38238;53.304;6.606;2023-02-14T05:28:23;2.50;99.90
52285;DHT22;38238;53.304;6.606;2023-02-14T05:30:50;1.70;99.90
52285;DHT22;38238;53.304;6.606;2023-02-14T05:33:16;2.60;99.90
52285;DHT22;38238;53.304;6.606;2023-02-14T05:35:42;1.60;99.90
52285;DHT22;38238;53.304;6.606;2023-02-14T05:38:08;1.60;99.90
52285;DHT22;38238;53.304;6.606;2023-02-14T05:40:34;1.70;99.90
52285;DHT22;38238;53.304;6.606;2023-02-14T05:42:59;1.60;99.90
52285;DHT22;38238;53.304;6.606;2023-02-14T05:45:25;1.60;99.90
52285;DHT22;38238;53.304;6.606;2023-02-14T05:47:51;1.60;99.90
52285;DHT22;38238;53.304;6.606;2023-02-14T05:50:17;1.60;99.90
52285;DHT22;38238;53.304;6.606;2023-02-14T05:52:43;1.60;99.90
52285;DHT22;38238;53.304;6.606;2023-02-14T05:55:09;1.60;99.90
52285;DHT22;38238;53.304;6.606;2023-02-14T05:57:35;1.90;99.90
52285;DHT22;38238;53.304;6.606;2023-02-14T06:00:03;1.60;99.90
52285;DHT22;38238;53.304;6.606;2023-02-14T06:02:31;1.60;99.90
52285;DHT22;38238;53.304;6.606;2023-02-14T06:04:56;2.00;99.90
52285;DHT22;38238;53.304;6.606;2023-02-14T06:07:22;1.50;99.90
52285;DHT22;38238;53.304;6.606;2023-02-14T06:09:48;2.00;99.90
52285;DHT22;38238;53.304;6.606;2023-02-14T06:12:14;1.60;99.90
52285;DHT22;38238;53.304;6.606;2023-02-14T06:14:39;1.60;99.90
52285;DHT22;38238;53.304;6.606;2023-02-14T06:17:08;1.60;99.90
52285;DHT22;38238;53.304;6.606;2023-02-14T06:19:34;1.60;99.90
52285;DHT22;38238;53.304;6.606;2023-02-14T06:22:00;2.40;99.90
52285;DHT22;38238;53.304;6.606;2023-02-14T06:24:25;2.80;99.90
52285;DHT22;38238;53.304;6.606;2023-02-14T06:26:51;1.70;99.90
52285;DHT22;38238;53.304;6.606;2023-02-14T06:29:17;1.50;99.90
52285;DHT22;38238;53.304;6.606;2023-02-14T06:31:43;1.50;99.90
52285;DHT22;38238;53.304;6.606;2023-02-14T06:34:08;1.40;99.90
52285;DHT22;38238;53.304;6.606;2023-02-14T06:36:34;1.90;99.90
52285;DHT22;38238;53.304;6.606;2023-02-14T06:39:00;1.50;99.90
52285;DHT22;38238;53.304;6.606;2023-02-14T06:41:25;1.60;99.90
52285;DHT22;38238;53.304;6.606;2023-02-14T06:43:51;2.00;99.90
52285;DHT22;38238;53.304;6.606;2023-02-14T06:46:17;1.40;99.90
52285;DHT22;38238;53.304;6.606;2023-02-14T06:48:43;1.40;99.90
52285;DHT22;38238;53.304;6.606;2023-02-14T06:51:09;1.40;99.90
52285;DHT22;38238;53.304;6.606;2023-02-14T06:53:35;1.40;99.90
52285;DHT22;38238;53.304;6.606;2023-02-14T06:56:01;1.40;99.90
52285;DHT22;38238;53.304;6.606;2023-02-14T06:58:26;1.30;99.90
52285;DHT22;38238;53.304;6.606;2023-02-14T07:00:56;1.30;99.90
52285;DHT22;38238;53.304;6.606;2023-02-14T07:03:22;1.60;99.90
52285;DHT22;38238;53.304;6.606;2023-02-14T07:05:47;1.30;99.90
52285;DHT22;38238;53.304;6.606;2023-02-14T07:08:13;1.30;99.90
52285;DHT22;38238;53.304;6.606;2023-02-14T07:10:39;2.60;99.90
52285;DHT22;38238;53.304;6.606;2023-02-14T07:13:05;1.30;99.90
52285;DHT22;38238;53.304;6.606;2023-02-14T07:15:31;1.30;99.90
52285;DHT22;38238;53.304;6.606;2023-02-14T07:17:56;1.30;99.90
52285;DHT22;38238;53.304;6.606;2023-02-14T07:20:23;1.40;99.90
52285;DHT22;38238;53.304;6.606;2023-02-14T07:22:49;2.10;99.90
52285;DHT22;38238;53.304;6.606;2023-02-14T07:25:15;1.40;99.90
52285;DHT22;38238;53.304;6.606;2023-02-14T07:27:41;1.40;99.90
52285;DHT22;38238;53.304;6.606;2023-02-14T07:30:08;1.40;99.90
52285;DHT22;38238;53.304;6.606;2023-02-14T07:32:33;2.80;99.90
52285;DHT22;38238;53.304;6.606;2023-02-14T07:35:00;1.40;99.90
52285;DHT22;38238;53.304;6.606;2023-02-14T07:37:26;1.40;99.90
52285;DHT22;38238;53.304;6.606;2023-02-14T07:39:52;1.40;99.90
52285;DHT22;38238;53.304;6.606;2023-02-14T07:42:18;1.40;99.90
52285;DHT22;38238;53.304;6.606;2023-02-14T07:44:43;1.40;99.90
52285;DHT22;38238;53.304;6.606;2023-02-14T07:47:11;2.10;99.90
52285;DHT22;38238;53.304;6.606;2023-02-14T07:49:36;1.40;99.90
52285;DHT22;38238;53.304;6.606;2023-02-14T07:52:03;1.40;99.90
52285;DHT22;38238;53.304;6.606;2023-02-14T07:54:29;1.40;99.90
52285;DHT22;38238;53.304;6.606;2023-02-14T07:56:55;1.40;99.90
52285;DHT22;38238;53.304;6.606;2023-02-14T07:59:21;1.40;99.90
52285;DHT22;38238;53.304;6.606;2023-02-14T08:01:47;1.40;99.90
52285;DHT22;38238;53.304;6.606;2023-02-14T08:04:12;2.00;99.90
52285;DHT22;38238;53.304;6.606;2023-02-14T08:06:39;1.50;99.90
52285;DHT22;38238;53.304;6.606;2023-02-14T08:09:05;1.50;99.90
52285;DHT22;38238;53.304;6.606;2023-02-14T08:11:31;1.50;99.90
52285;DHT22;38238;53.304;6.606;2023-02-14T08:14:16;1.50;99.90
52285;DHT22;38238;53.304;6.606;2023-02-14T08:16:41;1.60;99.90
52285;DHT22;38238;53.304;6.606;2023-02-14T08:19:07;1.50;99.90
52285;DHT22;38238;53.304;6.606;2023-02-14T08:21:33;1.60;99.90
52285;DHT22;38238;53.304;6.606;2023-02-14T08:23:58;1.60;99.90
52285;DHT22;38238;53.304;6.606;2023-02-14T08:26:24;2.10;99.90
52285;DHT22;38238;53.304;6.606;2023-02-14T08:28:50;2.50;99.90
52285;DHT22;38238;53.304;6.606;2023-02-14T08:31:29;1.70;99.90
52285;DHT22;38238;53.304;6.606;2023-02-14T08:33:56;1.70;99.90
52285;DHT22;38238;53.304;6.606;2023-02-14T08:36:22;2.00;99.90
52285;DHT22;38238;53.304;6.606;2023-02-14T08:38:48;1.70;99.90
52285;DHT22;38238;53.304;6.606;2023-02-14T08:41:14;1.80;99.90
52285;DHT22;38238;53.304;6.606;2023-02-14T08:43:41;1.70;99.90
52285;DHT22;38238;53.304;6.606;2023-02-14T08:46:06;1.70;99.90
52285;DHT22;38238;53.304;6.606;2023-02-14T08:48:33;2.40;99.90
52285;DHT22;38238;53.304;6.606;2023-02-14T08:51:04;1.70;99.90
52285;DHT22;38238;53.304;6.606;2023-02-14T08:53:30;1.80;99.90
52285;DHT22;38238;53.304;6.606;2023-02-14T08:55:59;2.30;99.90
52285;DHT22;38238;53.304;6.606;2023-02-14T08:58:27;1.80;99.90
52285;DHT22;38238;53.304;6.606;2023-02-14T09:00:52;3.20;99.90
52285;DHT22;38238;53.304;6.606;2023-02-14T09:03:20;1.90;99.90
52285;DHT22;38238;53.304;6.606;2023-02-14T09:05:46;1.90;99.90
52285;DHT22;38238;53.304;6.606;2023-02-14T09:08:11;2.10;99.90
52285;DHT22;38238;53.304;6.606;2023-02-14T09:10:37;1.90;99.90
52285;DHT22;38238;53.304;6.606;2023-02-14T09:13:03;1.90;99.90
52285;DHT22;38238;53.304;6.606;2023-02-14T09:15:29;2.90;99.90
52285;DHT22;38238;53.304;6.606;2023-02-14T09:17:55;2.10;99.90
52285;DHT22;38238;53.304;6.606;2023-02-14T09:20:20;2.50;99.90
52285;DHT22;38238;53.304;6.606;2023-02-14T09:22:46;2.40;99.90
52285;DHT22;38238;53.304;6.606;2023-02-14T09:25:12;2.40;99.90
52285;DHT22;38238;53.304;6.606;2023-02-14T09:27:38;3.60;99.90
52285;DHT22;38238;53.304;6.606;2023-02-14T09:30:05;3.00;99.90
52285;DHT22;38238;53.304;6.606;2023-02-14T09:32:31;2.70;99.90
52285;DHT22;38238;53.304;6.606;2023-02-14T09:34:57;2.80;99.90
52285;DHT22;38238;53.304;6.606;2023-02-14T09:37:41;2.80;99.90
52285;DHT22;38238;53.304;6.606;2023-02-14T09:40:25;4.30;99.90
52285;DHT22;38238;53.304;6.606;2023-02-14T09:45:39;3.20;99.90
52285;DHT22;38238;53.304;6.606;2023-02-14T09:48:30;3.40;99.90
52285;DHT22;38238;53.304;6.606;2023-02-14T09:51:06;3.60;99.90
52285;DHT22;38238;53.304;6.606;2023-02-14T09:53:39;3.70;99.90
52285;DHT22;38238;53.304;6.606;2023-02-14T10:01:44;4.10;99.90
52285;DHT22;38238;53.304;6.606;2023-02-14T10:10:00;4.40;99.90
52285;DHT22;38238;53.304;6.606;2023-02-14T10:15:06;4.70;99.90
52285;DHT22;38238;53.304;6.606;2023-02-14T10:17:48;4.80;99.90
52285;DHT22;38238;53.304;6.606;2023-02-14T10:20:31;5.00;99.90
52285;DHT22;38238;53.304;6.606;2023-02-14T10:26:01;6.60;99.90
52285;DHT22;38238;53.304;6.606;2023-02-14T10:28:48;7.90;99.90
52285;DHT22;38238;53.304;6.606;2023-02-14T10:34:23;9.90;99.90
52285;DHT22;38238;53.304;6.606;2023-02-14T10:44:54;11.80;99.90
52285;DHT22;38238;53.304;6.606;2023-02-14T10:50:06;12.80;99.90
52285;DHT22;38238;53.304;6.606;2023-02-14T10:55:21;12.80;99.90
52285;DHT22;38238;53.304;6.606;2023-02-14T10:57:53;12.90;99.90
52285;DHT22;38238;53.304;6.606;2023-02-14T11:00:20;13.00;99.90
52285;DHT22;38238;53.304;6.606;2023-02-14T11:02:55;13.30;99.90
52285;DHT22;38238;53.304;6.606;2023-02-14T11:05:27;13.60;99.90
52285;DHT22;38238;53.304;6.606;2023-02-14T11:07:55;13.80;99.90
52285;DHT22;38238;53.304;6.606;2023-02-14T11:10:26;13.70;99.90
52285;DHT22;38238;53.304;6.606;2023-02-14T11:12:52;13.60;99.90
52285;DHT22;38238;53.304;6.606;2023-02-14T11:15:26;13.90;99.90
52285;DHT22;38238;53.304;6.606;2023-02-14T11:18:14;14.00;99.90
52285;DHT22;38238;53.304;6.606;2023-02-14T11:20:41;14.10;99.90
52285;DHT22;38238;53.304;6.606;2023-02-14T11:23:18;14.00;99.90
52285;DHT22;38238;53.304;6.606;2023-02-14T11:25:49;14.00;99.90
52285;DHT22;38238;53.304;6.606;2023-02-14T11:28:18;14.20;99.90
52285;DHT22;38238;53.304;6.606;2023-02-14T11:30:45;14.20;99.90
52285;DHT22;38238;53.304;6.606;2023-02-14T11:33:41;14.20;99.90
52285;DHT22;38238;53.304;6.606;2023-02-14T11:36:20;14.30;99.90
52285;DHT22;38238;53.304;6.606;2023-02-14T11:38:55;14.50;99.90
52285;DHT22;38238;53.304;6.606;2023-02-14T11:41:22;14.80;99.90
52285;DHT22;38238;53.304;6.606;2023-02-14T11:43:48;14.90;99.90
52285;DHT22;38238;53.304;6.606;2023-02-14T11:49:01;14.40;99.90
52285;DHT22;38238;53.304;6.606;2023-02-14T11:51:35;14.60;99.90
52285;DHT22;38238;53.304;6.606;2023-02-14T11:54:03;15.00;99.90
52285;DHT22;38238;53.304;6.606;2023-02-14T11:56:51;14.90;99.90
52285;DHT22;38238;53.304;6.606;2023-02-14T11:59:31;14.70;99.90
52285;DHT22;38238;53.304;6.606;2023-02-14T12:02:03;14.70;99.90
52285;DHT22;38238;53.304;6.606;2023-02-14T12:04:37;14.70;99.90
52285;DHT22;38238;53.304;6.606;2023-02-14T12:09:38;14.80;99.90
52285;DHT22;38238;53.304;6.606;2023-02-14T12:12:24;14.80;99.90
52285;DHT22;38238;53.304;6.606;2023-02-14T12:14:50;14.70;99.90
52285;DHT22;38238;53.304;6.606;2023-02-14T12:17:34;14.60;99.90
52285;DHT22;38238;53.304;6.606;2023-02-14T12:20:10;14.50;99.90
52285;DHT22;38238;53.304;6.606;2023-02-14T12:22:57;14.50;99.90
52285;DHT22;38238;53.304;6.606;2023-02-14T12:25:33;14.60;99.90
52285;DHT22;38238;53.304;6.606;2023-02-14T12:28:08;14.70;99.90
52285;DHT22;38238;53.304;6.606;2023-02-14T12:30:35;14.70;99.90
52285;DHT22;38238;53.304;6.606;2023-02-14T12:33:00;14.90;99.90
52285;DHT22;38238;53.304;6.606;2023-02-14T12:35:58;14.90;99.90
52285;DHT22;38238;53.304;6.606;2023-02-14T12:41:47;14.70;99.90
52285;DHT22;38238;53.304;6.606;2023-02-14T12:44:21;15.20;99.90
52285;DHT22;38238;53.304;6.606;2023-02-14T12:47:11;15.30;99.90
52285;DHT22;38238;53.304;6.606;2023-02-14T12:52:42;15.80;99.90
52285;DHT22;38238;53.304;6.606;2023-02-14T13:06:34;15.80;99.90
52285;DHT22;38238;53.304;6.606;2023-02-14T13:14:56;14.90;99.90
52285;DHT22;38238;53.304;6.606;2023-02-14T13:17:36;14.30;99.90
52285;DHT22;38238;53.304;6.606;2023-02-14T13:26:05;12.30;99.90
52285;DHT22;38238;53.304;6.606;2023-02-14T13:28:32;12.00;99.90
52285;DHT22;38238;53.304;6.606;2023-02-14T13:30:59;11.70;99.90
52285;DHT22;38238;53.304;6.606;2023-02-14T13:33:41;11.60;99.90
52285;DHT22;38238;53.304;6.606;2023-02-14T13:36:10;11.40;99.90
52285;DHT22;38238;53.304;6.606;2023-02-14T13:38:44;11.30;99.90
52285;DHT22;38238;53.304;6.606;2023-02-14T13:41:12;11.20;99.90
52285;DHT22;38238;53.304;6.606;2023-02-14T13:46:18;11.20;99.90
52285;DHT22;38238;53.304;6.606;2023-02-14T13:49:12;11.20;99.90
52285;DHT22;38238;53.304;6.606;2023-02-14T13:51:49;11.20;99.90
52285;DHT22;38238;53.304;6.606;2023-02-14T13:56:54;11.20;99.90
52285;DHT22;38238;53.304;6.606;2023-02-14T13:59:27;11.30;99.90
52285;DHT22;38238;53.304;6.606;2023-02-14T14:01:53;11.30;99.90
52285;DHT22;38238;53.304;6.606;2023-02-14T14:19:56;11.50;99.90
52285;DHT22;38238;53.304;6.606;2023-02-14T14:22:23;11.50;99.90
52285;DHT22;38238;53.304;6.606;2023-02-14T14:25:04;11.50;99.90
52285;DHT22;38238;53.304;6.606;2023-02-14T14:27:41;11.50;99.90
52285;DHT22;38238;53.304;6.606;2023-02-14T14:30:20;11.50;99.90
52285;DHT22;38238;53.304;6.606;2023-02-14T14:32:47;11.50;99.90
52285;DHT22;38238;53.304;6.606;2023-02-14T14:35:24;11.40;99.90
52285;DHT22;38238;53.304;6.606;2023-02-14T14:38:00;11.40;99.90
52285;DHT22;38238;53.304;6.606;2023-02-14T14:42:59;11.40;99.90
52285;DHT22;38238;53.304;6.606;2023-02-14T14:45:28;11.40;99.90
52285;DHT22;38238;53.304;6.606;2023-02-14T14:47:56;11.40;99.90
52285;DHT22;38238;53.304;6.606;2023-02-14T14:50:31;11.40;99.90
52285;DHT22;38238;53.304;6.606;2023-02-14T14:53:04;11.40;99.90
52285;DHT22;38238;53.304;6.606;2023-02-14T14:55:33;11.50;99.90
52285;DHT22;38238;53.304;6.606;2023-02-14T14:58:02;11.40;99.90
52285;DHT22;38238;53.304;6.606;2023-02-14T15:00:31;11.40;99.90
52285;DHT22;38238;53.304;6.606;2023-02-14T15:05:43;11.40;99.90
52285;DHT22;38238;53.304;6.606;2023-02-14T15:10:55;11.40;99.90
52285;DHT22;38238;53.304;6.606;2023-02-14T15:13:32;11.40;99.90
52285;DHT22;38238;53.304;6.606;2023-02-14T15:16:37;11.40;99.90
52285;DHT22;38238;53.304;6.606;2023-02-14T15:19:09;11.50;99.90
52285;DHT22;38238;53.304;6.606;2023-02-14T15:21:35;11.50;99.90
52285;DHT22;38238;53.304;6.606;2023-02-14T15:24:02;11.50;99.90
52285;DHT22;38238;53.304;6.606;2023-02-14T15:26:33;11.40;99.90
52285;DHT22;38238;53.304;6.606;2023-02-14T15:29:06;11.40;99.90
52285;DHT22;38238;53.304;6.606;2023-02-14T15:31:37;11.60;99.90
52285;DHT22;38238;53.304;6.606;2023-02-14T15:34:04;11.40;99.90
52285;DHT22;38238;53.304;6.606;2023-02-14T15:36:31;11.30;99.90
52285;DHT22;38238;53.304;6.606;2023-02-14T15:39:00;11.30;99.90
52285;DHT22;38238;53.304;6.606;2023-02-14T15:41:26;11.20;99.90
52285;DHT22;38238;53.304;6.606;2023-02-14T15:43:55;11.20;99.90
52285;DHT22;38238;53.304;6.606;2023-02-14T15:46:36;11.10;99.90
52285;DHT22;38238;53.304;6.606;2023-02-14T15:49:30;11.00;99.90
52285;DHT22;38238;53.304;6.606;2023-02-14T15:52:00;10.90;99.90
52285;DHT22;38238;53.304;6.606;2023-02-14T15:54:40;10.80;99.90
52285;DHT22;38238;53.304;6.606;2023-02-14T15:57:23;10.80;99.90
52285;DHT22;38238;53.304;6.606;2023-02-14T15:59:50;10.70;99.90
52285;DHT22;38238;53.304;6.606;2023-02-14T16:02:37;10.60;99.90
52285;DHT22;38238;53.304;6.606;2023-02-14T16:05:18;10.90;99.90
52285;DHT22;38238;53.304;6.606;2023-02-14T16:07:56;10.40;99.90
52285;DHT22;38238;53.304;6.606;2023-02-14T16:10:32;10.20;99.90
52285;DHT22;38238;53.304;6.606;2023-02-14T16:13:01;10.10;99.90
52285;DHT22;38238;53.304;6.606;2023-02-14T16:15:30;9.90;99.90
52285;DHT22;38238;53.304;6.606;2023-02-14T16:17:56;9.80;99.90
52285;DHT22;38238;53.304;6.606;2023-02-14T16:20:42;9.70;99.90
52285;DHT22;38238;53.304;6.606;2023-02-14T16:23:24;9.60;99.90
52285;DHT22;38238;53.304;6.606;2023-02-14T16:25:50;9.50;99.90
52285;DHT22;38238;53.304;6.606;2023-02-14T16:28:17;9.40;99.90
52285;DHT22;38238;53.304;6.606;2023-02-14T16:30:45;9.30;99.90
52285;DHT22;38238;53.304;6.606;2023-02-14T16:33:32;9.20;99.90
52285;DHT22;38238;53.304;6.606;2023-02-14T16:36:28;9.10;99.90
52285;DHT22;38238;53.304;6.606;2023-02-14T16:38:54;9.00;99.90
52285;DHT22;38238;53.304;6.606;2023-02-14T16:41:25;9.20;99.90
52285;DHT22;38238;53.304;6.606;2023-02-14T16:43:52;8.80;99.90
52285;DHT22;38238;53.304;6.606;2023-02-14T16:46:28;8.70;99.90
52285;DHT22;38238;53.304;6.606;2023-02-14T16:48:54;9.00;99.90
52285;DHT22;38238;53.304;6.606;2023-02-14T16:51:21;8.70;99.90
52285;DHT22;38238;53.304;6.606;2023-02-14T16:53:47;8.50;99.90
52285;DHT22;38238;53.304;6.606;2023-02-14T16:56:27;8.50;99.90
52285;DHT22;38238;53.304;6.606;2023-02-14T16:58:54;8.40;99.90
52285;DHT22;38238;53.304;6.606;2023-02-14T17:01:23;8.40;99.90
52285;DHT22;38238;53.304;6.606;2023-02-14T17:03:48;8.30;99.90
52285;DHT22;38238;53.304;6.606;2023-02-14T17:06:17;8.30;99.90
52285;DHT22;38238;53.304;6.606;2023-02-14T17:08:44;8.20;99.90
52285;DHT22;38238;53.304;6.606;2023-02-14T17:11:10;8.10;99.90
52285;DHT22;38238;53.304;6.606;2023-02-14T17:13:38;8.10;99.90
52285;DHT22;38238;53.304;6.606;2023-02-14T17:16:05;8.20;99.90
52285;DHT22;38238;53.304;6.606;2023-02-14T17:18:32;8.00;99.90
52285;DHT22;38238;53.304;6.606;2023-02-14T17:20:59;7.90;99.90
52285;DHT22;38238;53.304;6.606;2023-02-14T17:23:25;7.90;99.90
52285;DHT22;38238;53.304;6.606;2023-02-14T17:25:51;7.90;99.90
52285;DHT22;38238;53.304;6.606;2023-02-14T17:28:17;7.80;99.90
52285;DHT22;38238;53.304;6.606;2023-02-14T17:30:42;8.00;99.90
52285;DHT22;38238;53.304;6.606;2023-02-14T17:33:08;7.70;99.90
52285;DHT22;38238;53.304;6.606;2023-02-14T17:35:35;7.60;99.90
52285;DHT22;38238;53.304;6.606;2023-02-14T17:38:01;7.50;99.90
52285;DHT22;38238;53.304;6.606;2023-02-14T17:40:28;7.50;99.90
52285;DHT22;38238;53.304;6.606;2023-02-14T17:42:53;7.40;99.90
52285;DHT22;38238;53.304;6.606;2023-02-14T17:45:19;7.40;99.90
52285;DHT22;38238;53.304;6.606;2023-02-14T17:47:45;7.30;99.90
52285;DHT22;38238;53.304;6.606;2023-02-14T17:50:11;7.40;99.90
52285;DHT22;38238;53.304;6.606;2023-02-14T17:52:41;7.30;99.90
52285;DHT22;38238;53.304;6.606;2023-02-14T17:55:07;7.10;99.90
52285;DHT22;38238;53.304;6.606;2023-02-14T17:57:34;7.10;99.90
52285;DHT22;38238;53.304;6.606;2023-02-14T18:00:00;7.10;99.90
52285;DHT22;38238;53.304;6.606;2023-02-14T18:02:27;7.00;99.90
52285;DHT22;38238;53.304;6.606;2023-02-14T18:04:53;7.20;99.90
52285;DHT22;38238;53.304;6.606;2023-02-14T18:07:19;7.00;99.90
52285;DHT22;38238;53.304;6.606;2023-02-14T18:09:45;6.90;99.90
52285;DHT22;38238;53.304;6.606;2023-02-14T18:12:11;6.90;99.90
52285;DHT22;38238;53.304;6.606;2023-02-14T18:14:37;6.80;99.90
52285;DHT22;38238;53.304;6.606;2023-02-14T18:17:03;6.70;99.90
52285;DHT22;38238;53.304;6.606;2023-02-14T18:19:29;7.00;99.90
52285;DHT22;38238;53.304;6.606;2023-02-14T18:21:54;6.60;99.90
52285;DHT22;38238;53.304;6.606;2023-02-14T18:24:20;7.10;99.90
52285;DHT22;38238;53.304;6.606;2023-02-14T18:26:46;6.50;99.90
52285;DHT22;38238;53.304;6.606;2023-02-14T18:29:12;6.50;99.90